Aviation Digital Data Service (ADDS)

Output produced by METARs form (1236 UTC 26 February 2017)
found at http://aviationweather.gov/adds/metars/
 
KIAG 261120Z 2612/2712 27013KT P6SM -SHSN OVC035 
     TEMPO 2612/2614 2SM -SN OVC025 
     FM261500 27015G25KT P6SM OVC050 
     FM262000 24016G23KT P6SM SCT050 
     FM262300 22010KT P6SM BKN070 
     FM270200 21011G22KT P6SM SCT070 
     FM270500 22018G32KT P6SM SCT070